createdAt,value
2022-12-24T00:00:58.743Z,998.15
2022-12-24T00:01:58.737Z,998.18
2022-12-24T00:02:58.791Z,998.17
2022-12-24T00:03:58.691Z,998.19
2022-12-24T00:05:01.131Z,998.20
2022-12-24T00:05:58.673Z,998.25
2022-12-24T00:06:58.659Z,998.23
2022-12-24T00:07:58.655Z,998.23
2022-12-24T00:08:58.661Z,998.21
2022-12-24T00:09:58.657Z,998.23
2022-12-24T00:10:58.612Z,998.22
2022-12-24T00:11:58.638Z,998.22
2022-12-24T00:12:58.599Z,998.23
2022-12-24T00:13:58.596Z,998.22
2022-12-24T00:14:58.560Z,998.22
2022-12-24T00:15:58.551Z,998.19
2022-12-24T00:16:58.640Z,998.17
2022-12-24T00:17:58.543Z,998.22
2022-12-24T00:18:58.521Z,998.23
2022-12-24T00:19:58.536Z,998.17
2022-12-24T00:20:58.501Z,998.19
2022-12-24T00:21:58.504Z,998.14
2022-12-24T00:22:58.501Z,998.13
2022-12-24T00:23:58.501Z,998.15
2022-12-24T00:24:58.462Z,998.09
2022-12-24T00:25:58.463Z,998.10
2022-12-24T00:26:58.466Z,998.13
2022-12-24T00:27:58.428Z,998.10
2022-12-24T00:28:58.442Z,998.08
2022-12-24T00:29:58.431Z,998.06
2022-12-24T00:30:58.453Z,998.01
2022-12-24T00:31:58.401Z,998.02
2022-12-24T00:32:58.367Z,998.03
2022-12-24T00:33:58.382Z,998.03
2022-12-24T00:34:58.372Z,998.06
2022-12-24T00:35:58.350Z,998.03
2022-12-24T00:36:58.340Z,998.07
2022-12-24T00:37:58.328Z,998.04
2022-12-24T00:38:58.297Z,998.04
2022-12-24T00:39:58.302Z,998.00
2022-12-24T00:40:58.283Z,998.05
2022-12-24T00:41:58.280Z,998.07
2022-12-24T00:42:58.299Z,998.09
2022-12-24T00:43:58.254Z,998.10
2022-12-24T00:44:58.242Z,998.11
2022-12-24T00:45:58.253Z,998.09
2022-12-24T00:46:58.242Z,998.12
2022-12-24T00:47:58.214Z,998.16
2022-12-24T00:48:58.205Z,998.16
2022-12-24T00:49:58.194Z,998.18
2022-12-24T00:50:58.177Z,998.19
2022-12-24T00:51:58.177Z,998.20
2022-12-24T00:52:58.157Z,998.26
2022-12-24T00:53:58.168Z,998.30
2022-12-24T00:54:58.141Z,998.30
2022-12-24T00:55:58.108Z,998.27
2022-12-24T00:56:58.125Z,998.28
2022-12-24T00:57:58.095Z,998.25
2022-12-24T00:58:58.087Z,998.31
2022-12-24T00:59:58.084Z,998.34
2022-12-24T01:00:58.078Z,998.35
2022-12-24T01:01:58.154Z,998.38
2022-12-24T01:02:58.240Z,998.39
2022-12-24T01:03:58.015Z,998.39
2022-12-24T01:04:58.042Z,998.35
2022-12-24T01:05:58.006Z,998.36
2022-12-24T01:06:58.014Z,998.41
2022-12-24T01:07:57.995Z,998.42
2022-12-24T01:08:57.991Z,998.40
2022-12-24T01:09:57.964Z,998.44
2022-12-24T01:10:57.948Z,998.42
2022-12-24T01:11:57.956Z,998.42
2022-12-24T01:12:57.931Z,998.44
2022-12-24T01:13:57.916Z,998.43
2022-12-24T01:14:57.917Z,998.46
2022-12-24T01:15:57.927Z,998.48
2022-12-24T01:16:57.902Z,998.44
2022-12-24T01:17:57.879Z,998.46
2022-12-24T01:18:57.883Z,998.51
2022-12-24T01:19:57.855Z,998.49
2022-12-24T01:20:57.830Z,998.50
2022-12-24T01:21:57.836Z,998.53
2022-12-24T01:22:57.821Z,998.53
2022-12-24T01:23:57.810Z,998.54
2022-12-24T01:24:57.791Z,998.58
2022-12-24T01:25:57.810Z,998.58
2022-12-24T01:26:57.778Z,998.56
2022-12-24T01:27:57.786Z,998.53
2022-12-24T01:28:57.788Z,998.55
2022-12-24T01:29:57.743Z,998.58
2022-12-24T01:30:57.786Z,998.56
2022-12-24T01:31:57.724Z,998.55
2022-12-24T01:32:57.712Z,998.57
2022-12-24T01:33:57.703Z,998.57
2022-12-24T01:34:57.689Z,998.54
2022-12-24T01:35:57.688Z,998.59
2022-12-24T01:36:57.685Z,998.58
2022-12-24T01:37:57.725Z,998.57
2022-12-24T01:38:57.647Z,998.59
2022-12-24T01:39:57.656Z,998.63
2022-12-24T01:40:57.624Z,998.59
2022-12-24T01:41:57.621Z,998.59
2022-12-24T01:42:57.603Z,998.60
2022-12-24T01:43:57.587Z,998.60
2022-12-24T01:44:57.583Z,998.60
2022-12-24T01:45:57.629Z,998.59
2022-12-24T01:46:57.604Z,998.62
2022-12-24T01:47:57.548Z,998.63
2022-12-24T01:48:57.523Z,998.61
2022-12-24T01:49:57.549Z,998.66
2022-12-24T01:50:57.511Z,998.67
2022-12-24T01:51:57.555Z,998.64
2022-12-24T01:52:57.476Z,998.66
2022-12-24T01:53:57.494Z,998.69
2022-12-24T01:54:57.458Z,998.69
2022-12-24T01:55:57.457Z,998.70
2022-12-24T01:56:57.436Z,998.74
2022-12-24T01:57:57.427Z,998.71
2022-12-24T01:58:57.432Z,998.77
2022-12-24T01:59:57.422Z,998.79
2022-12-24T02:00:57.421Z,998.84
2022-12-24T02:01:57.506Z,998.83
2022-12-24T02:02:57.527Z,998.83
2022-12-24T02:03:57.392Z,998.88
2022-12-24T02:04:57.347Z,998.89
2022-12-24T02:05:57.473Z,998.84
2022-12-24T02:06:57.335Z,998.89
2022-12-24T02:07:57.347Z,998.90
2022-12-24T02:08:57.318Z,998.93
2022-12-24T02:09:57.308Z,998.94
2022-12-24T02:10:57.310Z,998.95
2022-12-24T02:11:57.284Z,998.94
2022-12-24T02:12:57.280Z,998.93
2022-12-24T02:13:57.277Z,999.03
2022-12-24T02:14:57.239Z,999.01
2022-12-24T02:15:57.296Z,999.01
2022-12-24T02:16:57.232Z,999.03
2022-12-24T02:17:57.234Z,999.06
2022-12-24T02:18:57.210Z,999.05
2022-12-24T02:19:57.193Z,999.08
2022-12-24T02:20:57.186Z,999.12
2022-12-24T02:21:57.163Z,999.13
2022-12-24T02:22:57.154Z,999.12
2022-12-24T02:23:57.187Z,999.14
2022-12-24T02:24:57.135Z,999.13
2022-12-24T02:25:57.135Z,999.10
2022-12-24T02:26:57.115Z,999.13
2022-12-24T02:27:57.109Z,999.12
2022-12-24T02:28:57.127Z,999.12
2022-12-24T02:29:57.073Z,999.20
2022-12-24T02:30:57.175Z,999.20
2022-12-24T02:31:57.065Z,999.25
2022-12-24T02:32:57.063Z,999.30
2022-12-24T02:33:57.062Z,999.30
2022-12-24T02:34:57.036Z,999.36
2022-12-24T02:35:57.034Z,999.38
2022-12-24T02:36:56.998Z,999.37
2022-12-24T02:37:56.995Z,999.42
2022-12-24T02:38:56.995Z,999.39
2022-12-24T02:39:56.962Z,999.42
2022-12-24T02:40:56.970Z,999.43
2022-12-24T02:41:56.956Z,999.44
2022-12-24T02:42:56.959Z,999.41
2022-12-24T02:43:56.937Z,999.43
2022-12-24T02:44:56.917Z,999.41
2022-12-24T02:45:59.208Z,999.40
2022-12-24T02:46:56.979Z,999.41
2022-12-24T02:47:56.887Z,999.45
2022-12-24T02:48:56.873Z,999.44
2022-12-24T02:49:56.865Z,999.47
2022-12-24T02:50:57.063Z,999.45
2022-12-24T02:51:56.844Z,999.45
2022-12-24T02:52:56.833Z,999.47
2022-12-24T02:53:56.816Z,999.49
2022-12-24T02:54:56.799Z,999.46
2022-12-24T02:55:56.819Z,999.53
2022-12-24T02:56:56.778Z,999.56
2022-12-24T02:57:56.772Z,999.56
2022-12-24T02:58:56.772Z,999.57
2022-12-24T02:59:56.750Z,999.62
2022-12-24T03:00:56.804Z,999.65
2022-12-24T03:01:56.863Z,999.61
2022-12-24T03:02:56.772Z,999.66
2022-12-24T03:03:56.710Z,999.66
2022-12-24T03:04:56.710Z,999.64
2022-12-24T03:05:56.679Z,999.67
2022-12-24T03:06:56.667Z,999.65
2022-12-24T03:07:56.679Z,999.67
2022-12-24T03:08:56.651Z,999.70
2022-12-24T03:09:56.641Z,999.74
2022-12-24T03:10:56.620Z,999.71
2022-12-24T03:11:56.618Z,999.69
2022-12-24T03:12:56.621Z,999.73
2022-12-24T03:13:56.604Z,999.72
2022-12-24T03:14:56.581Z,999.72
2022-12-24T03:15:56.599Z,999.69
2022-12-24T03:16:56.581Z,999.71
2022-12-24T03:17:56.557Z,999.73
2022-12-24T03:18:56.550Z,999.71
2022-12-24T03:19:56.536Z,999.78
2022-12-24T03:20:56.522Z,999.77
2022-12-24T03:21:56.504Z,999.78
2022-12-24T03:22:56.495Z,999.80
2022-12-24T03:23:56.502Z,999.82
2022-12-24T03:24:56.480Z,999.83
2022-12-24T03:25:56.476Z,999.85
2022-12-24T03:26:56.473Z,999.89
2022-12-24T03:27:56.458Z,999.93
2022-12-24T03:28:56.428Z,999.90
2022-12-24T03:29:56.429Z,999.90
2022-12-24T03:30:56.399Z,999.92
2022-12-24T03:31:56.450Z,999.97
2022-12-24T03:32:56.375Z,1000.00
2022-12-24T03:33:56.391Z,999.99
2022-12-24T03:34:56.384Z,1000.00
2022-12-24T03:35:56.345Z,999.99
2022-12-24T03:36:56.357Z,999.99
2022-12-24T03:37:56.324Z,1000.00
2022-12-24T03:38:56.328Z,1000.03
2022-12-24T03:39:56.328Z,1000.04
2022-12-24T03:40:56.301Z,1000.08
2022-12-24T03:41:56.306Z,1000.08
2022-12-24T03:42:56.278Z,1000.04
2022-12-24T03:43:56.277Z,1000.04
2022-12-24T03:44:56.254Z,1000.08
2022-12-24T03:45:56.346Z,1000.08
2022-12-24T03:46:56.247Z,1000.11
2022-12-24T03:47:56.245Z,1000.09
2022-12-24T03:48:56.203Z,1000.11
2022-12-24T03:49:56.216Z,1000.11
2022-12-24T03:50:56.182Z,1000.14
2022-12-24T03:51:56.188Z,1000.17
2022-12-24T03:52:56.176Z,1000.18
2022-12-24T03:53:56.183Z,1000.20
2022-12-24T03:54:56.158Z,1000.21
2022-12-24T03:55:56.125Z,1000.24
2022-12-24T03:56:56.134Z,1000.26
2022-12-24T03:57:56.105Z,1000.26
2022-12-24T03:58:56.103Z,1000.27
2022-12-24T03:59:56.124Z,1000.27
2022-12-24T04:00:56.123Z,1000.29
2022-12-24T04:01:56.209Z,1000.32
2022-12-24T04:02:56.088Z,1000.34
2022-12-24T04:03:56.059Z,1000.34
2022-12-24T04:04:56.023Z,1000.43
2022-12-24T04:05:56.032Z,1000.45
2022-12-24T04:06:56.014Z,1000.47
2022-12-24T04:07:56.005Z,1000.46
2022-12-24T04:08:55.998Z,1000.47
2022-12-24T04:09:55.993Z,1000.53
2022-12-24T04:10:55.977Z,1000.49
2022-12-24T04:11:55.960Z,1000.54
2022-12-24T04:12:55.960Z,1000.51
2022-12-24T04:13:55.948Z,1000.53
2022-12-24T04:14:55.924Z,1000.52
2022-12-24T04:15:55.923Z,1000.49
2022-12-24T04:16:55.978Z,1000.47
2022-12-24T04:17:55.909Z,1000.46
2022-12-24T04:18:55.907Z,1000.45
2022-12-24T04:19:55.882Z,1000.47
2022-12-24T04:20:55.879Z,1000.46
2022-12-24T04:21:56.004Z,1000.46
2022-12-24T04:22:55.876Z,1000.47
2022-12-24T04:23:55.858Z,1000.50
2022-12-24T04:24:55.829Z,1000.45
2022-12-24T04:25:55.799Z,1000.46
2022-12-24T04:26:55.818Z,1000.43
2022-12-24T04:27:55.805Z,1000.39
2022-12-24T04:28:55.765Z,1000.37
2022-12-24T04:29:55.763Z,1000.33
2022-12-24T04:30:55.750Z,1000.25
2022-12-24T04:31:55.749Z,1000.24
2022-12-24T04:32:55.747Z,1000.31
2022-12-24T04:33:55.759Z,1000.36
2022-12-24T04:34:55.689Z,1000.40
2022-12-24T04:35:55.724Z,1000.45
2022-12-24T04:36:55.691Z,1000.49
2022-12-24T04:37:55.669Z,1000.48
2022-12-24T04:38:55.646Z,1000.54
2022-12-24T04:39:55.642Z,1000.57
2022-12-24T04:40:55.640Z,1000.62
2022-12-24T04:41:55.642Z,1000.68
2022-12-24T04:42:55.604Z,1000.72
2022-12-24T04:43:55.608Z,1000.74
2022-12-24T04:45:02.613Z,1000.76
2022-12-24T04:45:55.625Z,1000.78
2022-12-24T04:46:55.586Z,1000.83
2022-12-24T04:47:55.576Z,1000.86
2022-12-24T04:48:55.574Z,1000.86
2022-12-24T04:49:55.563Z,1000.86
2022-12-24T04:50:55.519Z,1000.91
2022-12-24T04:51:55.534Z,1000.93
2022-12-24T04:52:55.500Z,1000.97
2022-12-24T04:53:55.513Z,1000.98
2022-12-24T04:54:55.480Z,1000.98
2022-12-24T04:55:55.467Z,1000.98
2022-12-24T04:56:55.473Z,1000.96
2022-12-24T04:57:55.473Z,1001.02
2022-12-24T04:58:55.441Z,1001.05
2022-12-24T04:59:55.446Z,1001.06
2022-12-24T05:00:55.467Z,1001.04
2022-12-24T05:01:55.513Z,1001.05
2022-12-24T05:02:55.505Z,1001.09
2022-12-24T05:03:55.411Z,1001.10
2022-12-24T05:04:55.385Z,1001.11
2022-12-24T05:06:01.264Z,1001.16
2022-12-24T05:06:56.359Z,1001.17
2022-12-24T05:07:55.357Z,1001.19
2022-12-24T05:08:55.331Z,1001.21
2022-12-24T05:09:55.317Z,1001.21
2022-12-24T05:10:55.343Z,1001.21
2022-12-24T05:11:55.291Z,1001.21
2022-12-24T05:12:55.393Z,1001.24
2022-12-24T05:13:55.293Z,1001.23
2022-12-24T05:14:55.307Z,1001.23
2022-12-24T05:15:55.255Z,1001.20
2022-12-24T05:16:55.274Z,1001.21
2022-12-24T05:17:55.256Z,1001.20
2022-12-24T05:18:55.239Z,1001.19
2022-12-24T05:19:55.224Z,1001.23
2022-12-24T05:20:55.205Z,1001.23
2022-12-24T05:21:55.184Z,1001.21
2022-12-24T05:22:55.197Z,1001.20
2022-12-24T05:23:55.169Z,1001.17
2022-12-24T05:24:55.183Z,1001.18
2022-12-24T05:25:55.156Z,1001.18
2022-12-24T05:26:55.153Z,1001.19
2022-12-24T05:27:55.130Z,1001.16
2022-12-24T05:28:55.124Z,1001.20
2022-12-24T05:29:55.111Z,1001.24
2022-12-24T05:30:55.168Z,1001.22
2022-12-24T05:31:55.085Z,1001.21
2022-12-24T05:32:55.090Z,1001.26
2022-12-24T05:33:55.106Z,1001.22
2022-12-24T05:34:55.058Z,1001.19
2022-12-24T05:35:55.050Z,1001.23
2022-12-24T05:36:55.028Z,1001.28
2022-12-24T05:37:55.019Z,1001.28
2022-12-24T05:38:55.029Z,1001.32
2022-12-24T05:39:55.009Z,1001.33
2022-12-24T05:40:54.998Z,1001.29
2022-12-24T05:41:55.097Z,1001.29
2022-12-24T05:42:54.969Z,1001.30
2022-12-24T05:43:54.961Z,1001.28
2022-12-24T05:44:54.954Z,1001.29
2022-12-24T05:45:54.962Z,1001.26
2022-12-24T05:46:54.910Z,1001.26
2022-12-24T05:47:54.905Z,1001.28
2022-12-24T05:48:54.901Z,1001.31
2022-12-24T05:49:54.883Z,1001.28
2022-12-24T05:50:54.900Z,1001.34
2022-12-24T05:51:54.868Z,1001.33
2022-12-24T05:52:54.882Z,1001.32
2022-12-24T05:53:54.858Z,1001.34
2022-12-24T05:54:54.857Z,1001.35
2022-12-24T05:55:54.824Z,1001.37
2022-12-24T05:56:54.817Z,1001.39
2022-12-24T05:57:54.817Z,1001.39
2022-12-24T05:58:54.881Z,1001.40
2022-12-24T05:59:54.788Z,1001.39
2022-12-24T06:00:54.780Z,1001.45
2022-12-24T06:01:54.848Z,1001.48
2022-12-24T06:02:54.871Z,1001.51
2022-12-24T06:03:54.740Z,1001.50
2022-12-24T06:04:54.771Z,1001.50
2022-12-24T06:05:54.728Z,1001.49
2022-12-24T06:06:54.701Z,1001.50
2022-12-24T06:07:54.685Z,1001.48
2022-12-24T06:08:54.742Z,1001.48
2022-12-24T06:09:54.651Z,1001.52
2022-12-24T06:10:54.663Z,1001.53
2022-12-24T06:11:54.639Z,1001.53
2022-12-24T06:12:54.644Z,1001.52
2022-12-24T06:13:54.651Z,1001.58
2022-12-24T06:14:54.615Z,1001.56
2022-12-24T06:15:54.639Z,1001.58
2022-12-24T06:16:54.637Z,1001.61
2022-12-24T06:17:54.576Z,1001.61
2022-12-24T06:18:54.595Z,1001.59
2022-12-24T06:19:54.546Z,1001.61
2022-12-24T06:20:54.557Z,1001.61
2022-12-24T06:21:54.543Z,1001.61
2022-12-24T06:22:54.536Z,1001.64
2022-12-24T06:23:54.521Z,1001.67
2022-12-24T06:24:54.498Z,1001.66
2022-12-24T06:25:54.483Z,1001.70
2022-12-24T06:26:54.480Z,1001.70
2022-12-24T06:27:54.472Z,1001.71
2022-12-24T06:28:54.471Z,1001.71
2022-12-24T06:29:54.459Z,1001.68
2022-12-24T06:31:00.321Z,1001.70
2022-12-24T06:31:55.488Z,1001.70
2022-12-24T06:32:54.423Z,1001.71
2022-12-24T06:33:54.411Z,1001.72
2022-12-24T06:34:54.390Z,1001.72
2022-12-24T06:35:54.381Z,1001.71
2022-12-24T06:36:54.367Z,1001.77
2022-12-24T06:37:54.351Z,1001.77
2022-12-24T06:38:54.355Z,1001.77
2022-12-24T06:39:54.361Z,1001.83
2022-12-24T06:40:54.340Z,1001.84
2022-12-24T06:41:54.307Z,1001.87
2022-12-24T06:42:54.302Z,1001.86
2022-12-24T06:43:54.320Z,1001.94
2022-12-24T06:44:54.278Z,1001.90
2022-12-24T06:45:54.284Z,1001.92
2022-12-24T06:46:54.331Z,1001.96
2022-12-24T06:47:54.271Z,1001.96
2022-12-24T06:48:54.241Z,1001.99
2022-12-24T06:49:54.216Z,1002.02
2022-12-24T06:50:54.219Z,1002.00
2022-12-24T06:51:54.204Z,1002.05
2022-12-24T06:52:54.186Z,1002.07
2022-12-24T06:53:54.219Z,1002.05
2022-12-24T06:54:54.185Z,1002.07
2022-12-24T06:55:54.170Z,1002.08
2022-12-24T06:56:57.165Z,1002.11
2022-12-24T06:57:54.149Z,1002.12
2022-12-24T06:58:55.850Z,1002.17
2022-12-24T06:59:54.130Z,1002.15
2022-12-24T07:00:54.121Z,1002.21
2022-12-24T07:01:54.201Z,1002.21
2022-12-24T07:02:54.133Z,1002.24
2022-12-24T07:03:54.128Z,1002.23
2022-12-24T07:04:54.078Z,1002.26
2022-12-24T07:05:54.075Z,1002.28
2022-12-24T07:06:54.046Z,1002.31
2022-12-24T07:07:54.047Z,1002.31
2022-12-24T07:08:54.019Z,1002.29
2022-12-24T07:09:54.018Z,1002.28
2022-12-24T07:10:54.627Z,1002.27
2022-12-24T07:11:54.008Z,1002.30
2022-12-24T07:12:54.009Z,1002.27
2022-12-24T07:13:53.978Z,1002.28
2022-12-24T07:14:53.989Z,1002.30
2022-12-24T07:15:53.990Z,1002.36
2022-12-24T07:16:58.992Z,1002.41
2022-12-24T07:17:55.003Z,1002.40
2022-12-24T07:18:53.914Z,1002.42
2022-12-24T07:19:53.903Z,1002.39
2022-12-24T07:20:53.927Z,1002.46
2022-12-24T07:21:53.909Z,1002.44
2022-12-24T07:22:53.894Z,1002.44
2022-12-24T07:23:53.868Z,1002.48
2022-12-24T07:24:53.884Z,1002.51
2022-12-24T07:25:53.873Z,1002.50
2022-12-24T07:26:53.863Z,1002.51
2022-12-24T07:27:53.837Z,1002.53
2022-12-24T07:28:53.816Z,1002.52
2022-12-24T07:29:53.779Z,1002.54
2022-12-24T07:30:53.818Z,1002.61
2022-12-24T07:31:53.796Z,1002.60
2022-12-24T07:32:53.767Z,1002.66
2022-12-24T07:33:53.772Z,1002.63
2022-12-24T07:34:53.738Z,1002.66
2022-12-24T07:35:55.927Z,1002.65
2022-12-24T07:36:53.719Z,1002.60
2022-12-24T07:37:53.716Z,1002.59
2022-12-24T07:38:53.738Z,1002.66
2022-12-24T07:39:53.715Z,1002.64
2022-12-24T07:40:53.675Z,1002.69
2022-12-24T07:41:53.666Z,1002.67
2022-12-24T07:42:53.664Z,1002.67
2022-12-24T07:43:53.652Z,1002.66
2022-12-24T07:44:53.635Z,1002.70
2022-12-24T07:45:53.629Z,1002.71
2022-12-24T07:46:53.773Z,1002.71
2022-12-24T07:47:53.602Z,1002.73
2022-12-24T07:48:53.611Z,1002.75
2022-12-24T07:49:53.591Z,1002.73
2022-12-24T07:50:53.616Z,1002.76
2022-12-24T07:51:53.549Z,1002.77
2022-12-24T07:52:53.555Z,1002.79
2022-12-24T07:53:53.546Z,1002.83
2022-12-24T07:54:53.532Z,1002.88
2022-12-24T07:55:53.539Z,1002.88
2022-12-24T07:56:53.563Z,1002.95
2022-12-24T07:57:53.570Z,1002.95
2022-12-24T07:58:53.495Z,1002.95
2022-12-24T07:59:53.483Z,1003.00
2022-12-24T08:00:53.460Z,1003.02
2022-12-24T08:01:53.643Z,1003.07
2022-12-24T08:02:53.714Z,1003.06
2022-12-24T08:03:53.657Z,1003.11
2022-12-24T08:04:53.440Z,1003.06
2022-12-24T08:05:53.494Z,1003.14
2022-12-24T08:06:53.386Z,1003.09
2022-12-24T08:07:53.383Z,1003.10
2022-12-24T08:08:53.377Z,1003.09
2022-12-24T08:09:53.354Z,1003.08
2022-12-24T08:10:53.365Z,1003.12
2022-12-24T08:11:53.368Z,1003.11
2022-12-24T08:12:53.329Z,1003.15
2022-12-24T08:13:53.309Z,1003.12
2022-12-24T08:14:53.316Z,1003.05
2022-12-24T08:15:53.334Z,1003.05
2022-12-24T08:16:53.339Z,1003.04
2022-12-24T08:17:53.265Z,1003.05
2022-12-24T08:18:53.269Z,1003.14
2022-12-24T08:19:53.247Z,1003.15
2022-12-24T08:20:53.235Z,1003.09
2022-12-24T08:21:53.249Z,1003.10
2022-12-24T08:22:53.236Z,1003.14
2022-12-24T08:23:53.216Z,1003.20
2022-12-24T08:24:53.189Z,1003.19
2022-12-24T08:25:53.205Z,1003.21
2022-12-24T08:26:53.174Z,1003.19
2022-12-24T08:27:53.155Z,1003.21
2022-12-24T08:28:53.151Z,1003.17
2022-12-24T08:29:53.184Z,1003.09
2022-12-24T08:30:53.152Z,1003.12
2022-12-24T08:31:53.131Z,1003.14
2022-12-24T08:32:53.109Z,1003.16
2022-12-24T08:33:53.116Z,1003.19
2022-12-24T08:34:53.106Z,1003.18
2022-12-24T08:35:53.087Z,1003.17
2022-12-24T08:36:53.077Z,1003.15
2022-12-24T08:37:53.073Z,1003.19
2022-12-24T08:38:53.068Z,1003.23
2022-12-24T08:39:53.028Z,1003.21
2022-12-24T08:40:53.038Z,1003.20
2022-12-24T08:41:53.024Z,1003.23
2022-12-24T08:42:53.085Z,1003.25
2022-12-24T08:43:53.015Z,1003.20
2022-12-24T08:44:52.977Z,1003.24
2022-12-24T08:45:53.060Z,1003.27
2022-12-24T08:46:52.972Z,1003.28
2022-12-24T08:47:52.948Z,1003.31
2022-12-24T08:48:52.936Z,1003.32
2022-12-24T08:49:52.947Z,1003.37
2022-12-24T08:50:52.909Z,1003.38
2022-12-24T08:51:52.928Z,1003.35
2022-12-24T08:52:52.884Z,1003.38
2022-12-24T08:53:52.872Z,1003.37
2022-12-24T08:54:52.909Z,1003.37
2022-12-24T08:55:56.198Z,1003.36
2022-12-24T08:56:52.879Z,1003.42
2022-12-24T08:57:52.845Z,1003.38
2022-12-24T08:58:52.856Z,1003.39
2022-12-24T08:59:52.809Z,1003.40
2022-12-24T09:00:52.843Z,1003.43
2022-12-24T09:01:52.940Z,1003.43
2022-12-24T09:02:52.839Z,1003.46
2022-12-24T09:03:52.924Z,1003.51
2022-12-24T09:04:52.793Z,1003.53
2022-12-24T09:05:52.745Z,1003.54
2022-12-24T09:06:52.753Z,1003.53
2022-12-24T09:07:52.733Z,1003.53
2022-12-24T09:08:52.713Z,1003.51
2022-12-24T09:09:52.775Z,1003.52
2022-12-24T09:10:52.810Z,1003.50
2022-12-24T09:11:52.669Z,1003.51
2022-12-24T09:12:52.689Z,1003.52
2022-12-24T09:13:52.668Z,1003.49
2022-12-24T09:14:56.951Z,1003.54
2022-12-24T09:15:53.653Z,1003.52
2022-12-24T09:16:52.679Z,1003.55
2022-12-24T09:17:52.633Z,1003.63
2022-12-24T09:18:52.589Z,1003.63
2022-12-24T09:19:53.680Z,1003.67
2022-12-24T09:20:57.636Z,1003.72
2022-12-24T09:21:56.012Z,1003.72
2022-12-24T09:22:56.946Z,1003.69
2022-12-24T09:23:57.228Z,1003.62
2022-12-24T09:24:53.066Z,1003.65
2022-12-24T09:25:54.019Z,1003.61
2022-12-24T09:26:58.183Z,1003.69
2022-12-24T09:27:53.964Z,1003.75
2022-12-24T09:29:07.143Z,1003.80
2022-12-24T09:29:52.868Z,1003.85
2022-12-24T09:31:03.035Z,1003.83
2022-12-24T09:31:53.699Z,1003.83
2022-12-24T09:32:52.486Z,1003.83
2022-12-24T09:33:52.567Z,1003.78
2022-12-24T09:34:52.864Z,1003.79
2022-12-24T09:35:53.432Z,1003.78
2022-12-24T09:36:52.833Z,1003.80
2022-12-24T09:37:52.855Z,1003.77
2022-12-24T09:38:56.847Z,1003.85
2022-12-24T09:39:52.889Z,1003.86
2022-12-24T09:40:53.314Z,1003.91
2022-12-24T09:41:52.510Z,1003.92
2022-12-24T09:42:52.520Z,1003.94
2022-12-24T09:43:52.412Z,1003.91
2022-12-24T09:44:52.378Z,1003.93
2022-12-24T09:45:53.396Z,1003.94
2022-12-24T09:46:52.503Z,1003.96
2022-12-24T09:47:52.351Z,1004.01
2022-12-24T09:48:52.391Z,1003.98
2022-12-24T09:49:52.662Z,1004.02
2022-12-24T09:50:55.672Z,1004.03
2022-12-24T09:51:52.340Z,1004.05
2022-12-24T09:52:53.204Z,1004.10
2022-12-24T09:53:52.907Z,1004.14
2022-12-24T09:54:53.444Z,1004.23
2022-12-24T09:55:53.330Z,1004.27
2022-12-24T09:56:52.334Z,1004.29
2022-12-24T09:57:52.919Z,1004.31
2022-12-24T09:58:52.400Z,1004.35
2022-12-24T09:59:52.916Z,1004.37
2022-12-24T10:00:52.257Z,1004.36
2022-12-24T10:01:52.345Z,1004.29
2022-12-24T10:02:53.097Z,1004.25
2022-12-24T10:03:52.313Z,1004.22
2022-12-24T10:04:52.219Z,1004.19
2022-12-24T10:05:52.330Z,1004.16
2022-12-24T10:06:52.287Z,1004.16
2022-12-24T10:07:52.245Z,1004.17
2022-12-24T10:08:52.379Z,1004.17
2022-12-24T10:09:52.096Z,1004.24
2022-12-24T10:10:52.376Z,1004.30
2022-12-24T10:11:52.998Z,1004.33
2022-12-24T10:12:52.323Z,1004.36
2022-12-24T10:13:52.279Z,1004.44
2022-12-24T10:14:52.098Z,1004.41
2022-12-24T10:15:52.229Z,1004.41
2022-12-24T10:16:52.069Z,1004.48
2022-12-24T10:17:52.228Z,1004.42
2022-12-24T10:18:52.153Z,1004.47
2022-12-24T10:19:52.150Z,1004.45
2022-12-24T10:20:52.154Z,1004.44
2022-12-24T10:21:52.006Z,1004.45
2022-12-24T10:22:52.062Z,1004.50
2022-12-24T10:23:52.197Z,1004.50
2022-12-24T10:24:51.879Z,1004.56
2022-12-24T10:25:51.866Z,1004.58
2022-12-24T10:26:51.863Z,1004.60
2022-12-24T10:27:51.833Z,1004.63
2022-12-24T10:28:51.827Z,1004.61
2022-12-24T10:29:51.839Z,1004.60
2022-12-24T10:30:51.843Z,1004.58
2022-12-24T10:31:51.810Z,1004.58
2022-12-24T10:32:51.811Z,1004.58
2022-12-24T10:33:51.783Z,1004.62
2022-12-24T10:34:51.776Z,1004.63
2022-12-24T10:35:51.808Z,1004.65
2022-12-24T10:36:51.737Z,1004.70
2022-12-24T10:37:51.755Z,1004.68
2022-12-24T10:38:51.759Z,1004.65
2022-12-24T10:39:51.709Z,1004.68
2022-12-24T10:40:51.719Z,1004.67
2022-12-24T10:41:51.698Z,1004.70
2022-12-24T10:42:52.009Z,1004.74
2022-12-24T10:43:51.674Z,1004.76
2022-12-24T10:44:51.670Z,1004.74
2022-12-24T10:45:51.677Z,1004.72
2022-12-24T10:46:51.619Z,1004.76
2022-12-24T10:47:51.638Z,1004.75
2022-12-24T10:48:51.614Z,1004.80
2022-12-24T10:49:51.613Z,1004.82
2022-12-24T10:50:51.588Z,1004.84
2022-12-24T10:51:51.613Z,1004.86
2022-12-24T10:52:51.579Z,1004.86
2022-12-24T10:53:51.589Z,1004.87
2022-12-24T10:54:51.552Z,1004.88
2022-12-24T10:55:51.556Z,1004.92
2022-12-24T10:56:51.545Z,1004.90
2022-12-24T10:57:51.525Z,1004.91
2022-12-24T10:58:51.529Z,1004.95
2022-12-24T10:59:51.541Z,1004.95
2022-12-24T11:00:51.545Z,1004.95
2022-12-24T11:01:51.537Z,1004.96
2022-12-24T11:02:51.751Z,1004.97
2022-12-24T11:03:51.526Z,1005.01
2022-12-24T11:04:51.431Z,1004.98
2022-12-24T11:05:51.452Z,1004.97
2022-12-24T11:06:51.444Z,1005.01
2022-12-24T11:07:58.455Z,1005.02
2022-12-24T11:08:51.387Z,1005.06
2022-12-24T11:09:54.090Z,1005.12
2022-12-24T11:10:51.367Z,1005.09
2022-12-24T11:11:51.394Z,1005.10
2022-12-24T11:13:12.551Z,1005.12
2022-12-24T11:13:52.352Z,1005.14
2022-12-24T11:14:51.327Z,1005.17
2022-12-24T11:15:51.461Z,1005.16
2022-12-24T11:16:51.343Z,1005.19
2022-12-24T11:17:51.340Z,1005.17
2022-12-24T11:18:52.269Z,1005.21
2022-12-24T11:19:51.267Z,1005.23
2022-12-24T11:20:51.279Z,1005.22
2022-12-24T11:21:51.266Z,1005.21
2022-12-24T11:22:51.252Z,1005.20
2022-12-24T11:23:51.261Z,1005.22
2022-12-24T11:24:51.253Z,1005.20
2022-12-24T11:25:51.215Z,1005.20
2022-12-24T11:26:51.184Z,1005.18
2022-12-24T11:27:51.223Z,1005.16
2022-12-24T11:28:51.161Z,1005.19
2022-12-24T11:29:51.188Z,1005.21
2022-12-24T11:30:51.294Z,1005.21
2022-12-24T11:31:51.170Z,1005.18
2022-12-24T11:32:51.163Z,1005.23
2022-12-24T11:33:51.130Z,1005.25
2022-12-24T11:34:51.145Z,1005.24
2022-12-24T11:35:51.091Z,1005.28
2022-12-24T11:36:51.086Z,1005.29
2022-12-24T11:37:51.071Z,1005.29
2022-12-24T11:38:51.071Z,1005.26
2022-12-24T11:39:51.067Z,1005.24
2022-12-24T11:40:51.039Z,1005.23
2022-12-24T11:41:51.028Z,1005.26
2022-12-24T11:42:51.032Z,1005.27
2022-12-24T11:43:51.070Z,1005.28
2022-12-24T11:44:51.001Z,1005.33
2022-12-24T11:45:51.032Z,1005.37
2022-12-24T11:46:51.099Z,1005.38
2022-12-24T11:47:51.022Z,1005.37
2022-12-24T11:48:50.958Z,1005.34
2022-12-24T11:49:50.977Z,1005.37
2022-12-24T11:50:50.943Z,1005.39
2022-12-24T11:51:50.930Z,1005.38
2022-12-24T11:52:50.934Z,1005.36
2022-12-24T11:53:50.906Z,1005.36
2022-12-24T11:54:50.924Z,1005.44
2022-12-24T11:55:50.912Z,1005.46
2022-12-24T11:56:50.879Z,1005.48
2022-12-24T11:57:50.911Z,1005.48
2022-12-24T11:58:50.855Z,1005.50
2022-12-24T11:59:50.842Z,1005.54
2022-12-24T12:00:50.869Z,1005.55
2022-12-24T12:01:50.901Z,1005.52
2022-12-24T12:02:50.884Z,1005.52
2022-12-24T12:03:50.806Z,1005.54
2022-12-24T12:04:50.785Z,1005.53
2022-12-24T12:05:50.810Z,1005.56
2022-12-24T12:06:50.774Z,1005.56
2022-12-24T12:07:50.769Z,1005.51
2022-12-24T12:08:50.753Z,1005.52
2022-12-24T12:09:50.730Z,1005.52
2022-12-24T12:10:50.731Z,1005.56
2022-12-24T12:11:50.722Z,1005.56
2022-12-24T12:12:50.701Z,1005.54